Time;durP1;ratioP1;P1;durP2;ratioP2;P2;SDS_P1;SDS_P2;PMS_P1;PMS_P2;Temp;Humidity;BMP_temperature;BMP_pressure;BME280_temperature;BME280_humidity;BME280_pressure;Samples;Min_cycle;Max_cycle;Signal;HPM_P1;HPM_P2
2022/10/09 06:01:53;;;;;;;;;3.00;3.00;;;;;;;;5312868;22;45436;-59
2022/10/09 06:04:22;;;;;;;;;5.00;5.00;;;;;;;;5032744;28;45907;-59
2022/10/09 06:06:48;;;;;;;;;3.00;3.00;;;;;;;;5035978;28;45526;-58
2022/10/09 06:09:14;;;;;;;;;4.33;4.00;;;;;;;;5037398;28;45478;-58
2022/10/09 06:11:39;;;;;;;;;5.00;5.00;;;;;;;;5036992;28;45411;-58
2022/10/09 06:14:06;;;;;;;;;5.00;5.00;;;;;;;;5018392;28;46131;-59
2022/10/09 06:16:32;;;;;;;;;6.00;6.00;;;;;;;;5029329;28;45331;-58
2022/10/09 06:18:58;;;;;;;;;7.00;5.00;;;;;;;;5034402;28;45751;-60
2022/10/09 06:21:25;;;;;;;;;6.67;5.00;;;;;;;;5032501;28;45383;-58
2022/10/09 06:23:50;;;;;;;;;6.67;5.00;;;;;;;;5037484;28;46299;-58
2022/10/09 06:26:16;;;;;;;;;5.33;5.33;;;;;;;;5031190;28;45381;-58
2022/10/09 06:28:41;;;;;;;;;8.00;8.00;;;;;;;;5035510;28;45468;-58
2022/10/09 06:31:11;;;;;;;;;6.67;6.67;;;;;;;;5038333;28;45646;-58
2022/10/09 06:33:37;;;;;;;;;9.00;7.00;;;;;;;;5040076;28;45497;-58
2022/10/09 06:36:06;;;;;;;;;5.00;5.00;;;;;;;;5040973;28;45343;-58
2022/10/09 06:38:34;;;;;;;;;6.67;6.00;;;;;;;;5040366;28;45365;-58
2022/10/09 06:41:01;;;;;;;;;7.00;7.00;;;;;;;;5040824;28;45302;-59
2022/10/09 06:43:26;;;;;;;;;7.00;7.00;;;;;;;;5040811;28;47010;-58
2022/10/09 06:45:51;;;;;;;;;5.00;5.00;;;;;;;;5040333;28;45326;-58
2022/10/09 06:48:16;;;;;;;;;11.67;7.00;;;;;;;;5040899;28;45181;-59
2022/10/09 06:50:42;;;;;;;;;5.67;5.33;;;;;;;;5041001;28;45483;-60
2022/10/09 06:53:07;;;;;;;;;7.00;6.00;;;;;;;;5040492;28;45548;-60
2022/10/09 06:55:32;;;;;;;;;7.00;6.00;;;;;;;;5041058;28;45466;-60
2022/10/09 06:57:57;;;;;;;;;6.33;4.67;;;;;;;;5040657;28;45589;-60
2022/10/09 07:00:23;;;;;;;;;6.00;6.00;;;;;;;;5039839;28;45526;-60
2022/10/09 07:02:48;;;;;;;;;5.67;5.67;;;;;;;;5040704;28;45910;-60
2022/10/09 07:05:13;;;;;;;;;8.33;6.67;;;;;;;;5040337;28;45233;-60
2022/10/09 07:07:39;;;;;;;;;6.67;6.67;;;;;;;;5041024;28;45347;-60
2022/10/09 07:10:05;;;;;;;;;8.67;7.67;;;;;;;;5039759;28;45461;-60
2022/10/09 07:12:30;;;;;;;;;8.00;8.00;;;;;;;;5040581;28;46030;-60
2022/10/09 07:14:55;;;;;;;;;10.33;6.67;;;;;;;;5040028;28;45480;-60
2022/10/09 07:17:20;;;;;;;;;10.00;7.00;;;;;;;;5040878;28;45277;-60
2022/10/09 07:19:47;;;;;;;;;7.00;7.00;;;;;;;;5035395;28;45387;-60
2022/10/09 07:22:12;;;;;;;;;10.00;8.33;;;;;;;;5040315;28;46062;-60
2022/10/09 07:24:37;;;;;;;;;7.00;5.00;;;;;;;;5040263;28;45409;-60
2022/10/09 07:27:02;;;;;;;;;9.67;8.00;;;;;;;;5031064;28;45337;-60
2022/10/09 07:29:28;;;;;;;;;9.67;9.67;;;;;;;;5035682;28;45607;-60
2022/10/09 07:31:53;;;;;;;;;12.00;9.33;;;;;;;;5040003;28;45411;-60
2022/10/09 07:34:18;;;;;;;;;8.00;8.00;;;;;;;;5040114;28;45459;-60
2022/10/09 07:36:43;;;;;;;;;10.00;8.00;;;;;;;;5038596;28;45455;-60
2022/10/09 07:39:08;;;;;;;;;8.33;8.33;;;;;;;;5034834;28;45515;-57
2022/10/09 07:41:34;;;;;;;;;7.33;7.33;;;;;;;;5030304;28;46171;-59
2022/10/09 07:43:59;;;;;;;;;9.67;7.67;;;;;;;;5024320;28;45476;-58
2022/10/09 07:46:25;;;;;;;;;8.67;8.67;;;;;;;;5040418;28;45476;-58
2022/10/09 07:48:52;;;;;;;;;6.67;6.67;;;;;;;;5039260;28;45562;-59
2022/10/09 07:51:19;;;;;;;;;11.67;8.00;;;;;;;;5039264;28;45985;-58
2022/10/09 07:53:44;;;;;;;;;9.67;9.00;;;;;;;;5039452;28;45463;-58
2022/10/09 07:56:22;;;;;;;;;8.33;8.00;;;;;;;;5040246;28;45577;-59
2022/10/09 07:58:48;;;;;;;;;10.00;7.33;;;;;;;;5036520;28;45462;-58
2022/10/09 08:01:13;;;;;;;;;8.00;8.00;;;;;;;;5037082;28;45707;-59
2022/10/09 08:03:39;;;;;;;;;8.67;8.00;;;;;;;;5038515;28;45328;-59
2022/10/09 08:06:04;;;;;;;;;9.67;8.00;;;;;;;;5038789;28;45276;-59
2022/10/09 08:08:29;;;;;;;;;10.33;9.00;;;;;;;;5039255;28;45551;-59
2022/10/09 08:10:55;;;;;;;;;12.33;10.67;;;;;;;;5038447;28;46152;-59
2022/10/09 08:13:20;;;;;;;;;9.33;9.00;;;;;;;;5039271;28;45460;-59
2022/10/09 08:15:45;;;;;;;;;7.67;7.67;;;;;;;;5038143;28;45468;-58
2022/10/09 08:18:11;;;;;;;;;10.00;8.33;;;;;;;;5038013;28;45531;-58
2022/10/09 08:20:36;;;;;;;;;7.33;7.33;;;;;;;;5036314;28;45412;-58
2022/10/09 08:23:01;;;;;;;;;10.67;8.67;;;;;;;;5033715;28;45311;-58
2022/10/09 08:25:27;;;;;;;;;8.00;7.00;;;;;;;;5038734;28;45350;-58
2022/10/09 08:27:52;;;;;;;;;9.00;9.00;;;;;;;;5038291;28;45436;-59
2022/10/09 08:30:17;;;;;;;;;9.00;9.00;;;;;;;;5038474;28;45366;-59
2022/10/09 08:32:43;;;;;;;;;11.33;9.33;;;;;;;;5039075;28;45375;-61
2022/10/09 08:35:08;;;;;;;;;10.00;9.00;;;;;;;;5036395;28;45433;-58
2022/10/09 08:37:33;;;;;;;;;9.67;9.67;;;;;;;;5038101;28;45463;-59
2022/10/09 08:39:59;;;;;;;;;9.33;8.33;;;;;;;;5037822;28;46975;-59
2022/10/09 08:42:35;;;;;;;;;7.67;7.33;;;;;;;;5038505;28;45378;-59
2022/10/09 08:45:01;;;;;;;;;14.00;11.00;;;;;;;;5033804;28;45791;-59
2022/10/09 08:47:31;;;;;;;;;11.00;9.33;;;;;;;;5037877;28;45689;-59
2022/10/09 08:50:08;;;;;;;;;11.33;9.67;;;;;;;;5035262;28;45276;-59
2022/10/09 08:52:55;;;;;;;;;11.00;10.00;;;;;;;;5034972;28;45589;-59
2022/10/09 08:55:28;;;;;;;;;13.67;10.67;;;;;;;;5034574;28;45328;-59
2022/10/09 08:57:55;;;;;;;;;11.67;10.00;;;;;;;;5034234;28;45553;-59
2022/10/09 09:00:22;;;;;;;;;11.33;11.00;;;;;;;;5030598;28;46440;-60
2022/10/09 09:03:07;;;;;;;;;10.33;8.67;;;;;;;;5025378;28;46694;-59
2022/10/09 09:05:44;;;;;;;;;10.00;10.00;;;;;;;;5036699;28;45618;-60
2022/10/09 09:08:15;;;;;;;;;12.00;11.67;;;;;;;;5032254;28;45477;-59
2022/10/09 09:10:53;;;;;;;;;9.67;9.67;;;;;;;;5025803;28;46475;-59
2022/10/09 09:13:28;;;;;;;;;13.00;11.33;;;;;;;;5034743;28;45359;-59
2022/10/09 09:15:57;;;;;;;;;15.00;12.33;;;;;;;;5036500;28;45534;-60
2022/10/09 09:18:28;;;;;;;;;16.33;13.33;;;;;;;;5031651;28;45463;-60
2022/10/09 09:20:54;;;;;;;;;17.00;12.67;;;;;;;;5016340;28;48557;-60
2022/10/09 09:23:32;;;;;;;;;13.67;12.33;;;;;;;;5022178;28;45498;-59
2022/10/09 09:25:58;;;;;;;;;14.00;12.00;;;;;;;;5031930;28;45284;-59
2022/10/09 09:28:28;;;;;;;;;13.33;13.33;;;;;;;;5022276;28;45345;-59
2022/10/09 09:30:56;;;;;;;;;10.33;10.33;;;;;;;;5019584;28;46384;-59
2022/10/09 09:33:25;;;;;;;;;9.67;9.67;;;;;;;;5030930;28;45415;-59
2022/10/09 09:35:50;;;;;;;;;13.33;12.33;;;;;;;;5029517;28;45569;-60
2022/10/09 09:38:15;;;;;;;;;13.00;10.00;;;;;;;;5030839;28;45590;-59
2022/10/09 09:40:42;;;;;;;;;9.00;9.00;;;;;;;;5023997;28;45489;-59
2022/10/09 09:43:15;;;;;;;;;8.33;8.33;;;;;;;;5021824;28;45691;-60
2022/10/09 09:45:42;;;;;;;;;13.33;11.67;;;;;;;;5002573;28;45404;-59
2022/10/09 09:48:16;;;;;;;;;9.33;9.33;;;;;;;;5020985;28;45516;-59
2022/10/09 09:50:43;;;;;;;;;9.00;9.00;;;;;;;;5026805;28;46170;-59
2022/10/09 09:53:34;;;;;;;;;8.00;6.67;;;;;;;;5031166;28;45466;-59
2022/10/09 09:55:59;;;;;;;;;11.00;11.00;;;;;;;;5035968;28;45376;-59
2022/10/09 09:58:30;;;;;;;;;10.00;10.00;;;;;;;;5032585;28;45434;-59
2022/10/09 10:00:56;;;;;;;;;15.00;10.33;;;;;;;;5011174;28;47303;-60
2022/10/09 10:03:22;;;;;;;;;10.50;8.00;;;;;;;;5031302;28;45471;-60
2022/10/09 10:05:47;;;;;;;;;10.25;10.00;;;;;;;;5038901;28;45354;-60
2022/10/09 10:08:13;;;;;;;;;10.00;8.75;;;;;;;;5034907;28;45355;-60
2022/10/09 10:10:43;;;;;;;;;9.00;9.00;;;;;;;;5032107;28;46300;-60
2022/10/09 10:13:14;;;;;;;;;9.00;9.00;;;;;;;;5038878;28;45233;-59
2022/10/09 10:15:46;;;;;;;;;8.25;8.25;;;;;;;;5039200;28;45405;-60
2022/10/09 10:18:13;;;;;;;;;6.75;6.50;;;;;;;;5038557;28;45603;-60
2022/10/09 10:20:44;;;;;;;;;9.67;9.67;;;;;;;;5021214;28;47416;-60
2022/10/09 10:23:21;;;;;;;;;7.75;7.75;;;;;;;;5039489;28;45470;-60
2022/10/09 10:25:46;;;;;;;;;8.00;8.00;;;;;;;;5040145;28;45779;-60
2022/10/09 10:28:14;;;;;;;;;10.00;8.25;;;;;;;;5024061;28;45379;-59
2022/10/09 10:30:40;;;;;;;;;6.25;6.25;;;;;;;;5037660;28;45501;-60
2022/10/09 10:33:19;;;;;;;;;6.75;6.00;;;;;;;;5039710;28;45459;-59
2022/10/09 10:35:48;;;;;;;;;8.00;6.50;;;;;;;;5038317;28;45514;-58
2022/10/09 10:38:13;;;;;;;;;9.25;6.50;;;;;;;;5037598;28;45386;-60
2022/10/09 10:40:57;;;;;;;;;7.25;4.75;;;;;;;;5039475;28;45759;-60
2022/10/09 10:43:51;;;;;;;;;5.75;5.00;;;;;;;;5039046;28;45427;-60
2022/10/09 10:46:36;;;;;;;;;5.50;5.50;;;;;;;;5022233;28;45320;-59
2022/10/09 10:49:01;;;;;;;;;5.00;5.00;;;;;;;;5037995;28;45315;-59
2022/10/09 10:51:45;;;;;;;;;6.50;4.00;;;;;;;;5039875;28;45396;-59
2022/10/09 10:54:19;;;;;;;;;5.00;5.00;;;;;;;;5039846;28;45419;-59
2022/10/09 10:56:52;;;;;;;;;5.25;5.25;;;;;;;;5036222;28;45465;-59
2022/10/09 10:59:46;;;;;;;;;5.25;5.00;;;;;;;;5037509;28;45469;-59
2022/10/09 11:02:13;;;;;;;;;5.25;4.00;;;;;;;;5016517;28;46239;-59
2022/10/09 11:04:38;;;;;;;;;5.00;4.25;;;;;;;;5038221;28;45326;-59
2022/10/09 11:07:13;;;;;;;;;5.25;3.50;;;;;;;;5032988;28;45448;-59
2022/10/09 11:09:46;;;;;;;;;4.25;4.25;;;;;;;;5039926;28;45359;-59
2022/10/09 11:12:30;;;;;;;;;3.00;1.50;;;;;;;;5039200;28;45364;-59
2022/10/09 11:15:08;;;;;;;;;3.00;3.00;;;;;;;;5027735;28;45380;-59
2022/10/09 11:17:47;;;;;;;;;2.25;2.25;;;;;;;;5040088;28;45407;-59
2022/10/09 11:20:19;;;;;;;;;3.00;2.00;;;;;;;;5039584;28;45347;-58
2022/10/09 11:23:03;;;;;;;;;3.00;1.25;;;;;;;;5038316;28;45316;-59
2022/10/09 11:25:52;;;;;;;;;4.25;2.75;;;;;;;;5034727;28;45327;-59
2022/10/09 11:28:21;;;;;;;;;2.50;2.50;;;;;;;;4992343;28;45511;-59
2022/10/09 11:30:51;;;;;;;;;3.75;3.00;;;;;;;;5037261;28;45608;-59
2022/10/09 11:33:19;;;;;;;;;3.50;3.50;;;;;;;;5032526;28;46413;-59
2022/10/09 11:35:52;;;;;;;;;3.75;1.50;;;;;;;;5025599;28;45558;-59
2022/10/09 11:38:36;;;;;;;;;3.00;1.75;;;;;;;;5035585;28;45485;-59
2022/10/09 11:41:02;;;;;;;;;6.50;4.00;;;;;;;;5037130;28;45355;-59
2022/10/09 11:43:42;;;;;;;;;4.00;3.75;;;;;;;;5038160;28;46151;-59
2022/10/09 11:46:30;;;;;;;;;3.00;2.00;;;;;;;;5031399;28;45467;-59
2022/10/09 11:48:55;;;;;;;;;2.00;2.00;;;;;;;;5033711;28;45427;-59
2022/10/09 11:51:31;;;;;;;;;4.25;4.25;;;;;;;;5039995;28;45260;-59
2022/10/09 11:53:57;;;;;;;;;4.00;4.00;;;;;;;;5039485;28;45236;-59
2022/10/09 11:56:26;;;;;;;;;3.00;3.00;;;;;;;;5039548;28;45663;-59
2022/10/09 11:58:57;;;;;;;;;3.00;3.00;;;;;;;;5033092;28;45395;-59
2022/10/09 12:01:24;;;;;;;;;3.25;2.25;;;;;;;;5029731;28;45343;-58
2022/10/09 12:04:00;;;;;;;;;3.75;3.00;;;;;;;;5038857;28;45491;-59
2022/10/09 12:06:25;;;;;;;;;1.00;1.00;;;;;;;;5029154;28;45408;-59
2022/10/09 12:09:06;;;;;;;;;1.50;1.50;;;;;;;;5033396;28;45785;-59
2022/10/09 12:11:32;;;;;;;;;5.00;3.25;;;;;;;;5036686;28;45471;-59
2022/10/09 12:13:58;;;;;;;;;2.25;2.25;;;;;;;;5037111;28;46997;-59
2022/10/09 12:16:46;;;;;;;;;3.00;3.00;;;;;;;;5039105;28;45368;-60
2022/10/09 12:19:14;;;;;;;;;3.50;3.50;;;;;;;;5025260;28;45439;-60
2022/10/09 12:21:52;;;;;;;;;3.67;3.67;;;;;;;;5034073;28;45422;-60
2022/10/09 12:24:26;;;;;;;;;4.00;4.00;;;;;;;;5035087;28;46042;-60
2022/10/09 12:26:53;;;;;;;;;5.50;3.75;;;;;;;;5036535;28;45403;-60
2022/10/09 12:29:31;;;;;;;;;6.33;5.00;;;;;;;;5036055;28;45708;-60
2022/10/09 12:31:58;;;;;;;;;5.67;3.33;;;;;;;;5038873;28;45373;-60
2022/10/09 12:34:26;;;;;;;;;3.00;3.00;;;;;;;;5032842;28;45372;-60
2022/10/09 12:37:01;;;;;;;;;6.33;3.33;;;;;;;;5009166;28;45231;-60
2022/10/09 12:39:27;;;;;;;;;7.67;4.67;;;;;;;;5029793;28;45242;-59
2022/10/09 12:41:55;;;;;;;;;3.00;3.00;;;;;;;;5030401;28;45438;-60
2022/10/09 12:44:31;;;;;;;;;6.00;4.00;;;;;;;;5028603;28;45715;-60
2022/10/09 12:47:06;;;;;;;;;5.00;4.00;;;;;;;;5033863;28;45320;-60
2022/10/09 12:49:32;;;;;;;;;2.00;2.00;;;;;;;;5038369;28;45470;-60
2022/10/09 12:51:58;;;;;;;;;4.00;4.00;;;;;;;;5032098;28;45429;-60
2022/10/09 12:54:24;;;;;;;;;3.67;3.67;;;;;;;;5030484;28;46156;-60
2022/10/09 12:56:51;;;;;;;;;4.00;4.00;;;;;;;;5036195;28;45404;-60
2022/10/09 12:59:16;;;;;;;;;5.00;2.00;;;;;;;;5036402;28;45589;-60
2022/10/09 13:01:42;;;;;;;;;3.33;3.33;;;;;;;;5038049;28;45345;-60
2022/10/09 13:04:22;;;;;;;;;4.67;3.33;;;;;;;;5035564;28;45969;-60
2022/10/09 13:06:49;;;;;;;;;3.00;1.67;;;;;;;;5034153;28;45465;-60
2022/10/09 13:09:22;;;;;;;;;3.67;3.67;;;;;;;;5033171;28;45531;-60
2022/10/09 13:11:56;;;;;;;;;4.00;4.00;;;;;;;;5036194;28;45299;-60
2022/10/09 13:14:24;;;;;;;;;2.67;2.67;;;;;;;;5037152;28;46338;-58
2022/10/09 13:16:50;;;;;;;;;3.00;3.00;;;;;;;;5033323;28;45876;-59
2022/10/09 13:19:23;;;;;;;;;5.00;3.67;;;;;;;;5033596;28;45347;-56
2022/10/09 13:22:00;;;;;;;;;4.00;3.00;;;;;;;;5033776;28;45493;-57
2022/10/09 13:24:26;;;;;;;;;2.33;2.33;;;;;;;;5022747;28;45431;-57
2022/10/09 13:26:51;;;;;;;;;2.33;2.33;;;;;;;;5028014;28;45413;-57
2022/10/09 13:29:17;;;;;;;;;3.00;3.00;;;;;;;;5031027;28;45601;-57
2022/10/09 13:31:42;;;;;;;;;2.33;2.33;;;;;;;;5021080;28;45766;-57
2022/10/09 13:34:10;;;;;;;;;2.67;2.67;;;;;;;;5015545;28;47122;-57
2022/10/09 13:36:35;;;;;;;;;5.00;4.00;;;;;;;;5037391;28;45435;-57
2022/10/09 13:39:00;;;;;;;;;3.00;3.00;;;;;;;;5038419;28;45415;-57
2022/10/09 13:41:26;;;;;;;;;2.33;2.33;;;;;;;;5039342;28;45715;-57
2022/10/09 13:43:52;;;;;;;;;6.00;3.67;;;;;;;;5034989;28;45740;-57
2022/10/09 13:46:17;;;;;;;;;5.00;4.33;;;;;;;;5032024;28;45476;-57
2022/10/09 13:48:43;;;;;;;;;2.33;2.33;;;;;;;;5040919;28;45401;-57
2022/10/09 13:51:08;;;;;;;;;4.00;2.00;;;;;;;;5040609;28;45332;-58
2022/10/09 13:53:33;;;;;;;;;2.33;2.33;;;;;;;;5038598;28;46143;-58
2022/10/09 13:55:59;;;;;;;;;5.67;4.33;;;;;;;;5038894;28;45411;-58
2022/10/09 13:58:24;;;;;;;;;5.00;3.67;;;;;;;;5035717;28;45466;-55
2022/10/09 14:00:49;;;;;;;;;3.33;3.33;;;;;;;;5039820;28;45466;-65
2022/10/09 14:03:15;;;;;;;;;3.67;2.33;;;;;;;;5038096;28;46017;-59
2022/10/09 14:05:40;;;;;;;;;5.67;3.00;;;;;;;;5037513;28;45376;-59
2022/10/09 14:08:06;;;;;;;;;3.67;3.67;;;;;;;;5037412;28;45457;-59
2022/10/09 14:10:31;;;;;;;;;2.00;2.00;;;;;;;;5038996;28;45642;-59
2022/10/09 14:12:56;;;;;;;;;4.33;3.00;;;;;;;;5026330;28;46504;-59
2022/10/09 14:15:21;;;;;;;;;4.00;3.00;;;;;;;;5037434;28;45412;-59
2022/10/09 14:17:47;;;;;;;;;4.67;3.00;;;;;;;;5039384;28;45281;-60
2022/10/09 14:20:12;;;;;;;;;4.33;2.33;;;;;;;;5033152;28;45686;-69
2022/10/09 14:22:37;;;;;;;;;5.00;4.00;;;;;;;;5034100;28;45507;-71
2022/10/09 14:25:02;;;;;;;;;4.00;4.00;;;;;;;;5031321;28;45382;-72
2022/10/09 14:27:28;;;;;;;;;6.00;4.00;;;;;;;;5033344;28;45585;-71
2022/10/09 14:29:53;;;;;;;;;2.67;2.00;;;;;;;;5034185;28;45640;-71
2022/10/09 14:32:18;;;;;;;;;2.67;2.33;;;;;;;;5036009;28;46213;-71
2022/10/09 14:34:43;;;;;;;;;3.00;3.00;;;;;;;;5038336;28;45370;-71
2022/10/09 14:37:09;;;;;;;;;3.00;2.00;;;;;;;;5020911;28;45440;-70
2022/10/09 14:39:34;;;;;;;;;4.00;4.00;;;;;;;;5038252;28;45356;-72
2022/10/09 14:41:59;;;;;;;;;3.00;3.00;;;;;;;;5038364;28;46624;-73
2022/10/09 14:44:24;;;;;;;;;4.33;3.00;;;;;;;;5034897;28;45462;-73
2022/10/09 14:46:49;;;;;;;;;3.00;3.00;;;;;;;;5029689;28;45323;-73
2022/10/09 14:49:15;;;;;;;;;5.33;4.00;;;;;;;;5021047;28;45328;-73
2022/10/09 14:51:40;;;;;;;;;7.00;6.00;;;;;;;;5039467;28;46162;-74
2022/10/09 14:54:06;;;;;;;;;5.00;5.00;;;;;;;;5033585;28;45456;-74
2022/10/09 14:56:32;;;;;;;;;3.67;2.67;;;;;;;;5040413;28;45386;-74
2022/10/09 14:58:59;;;;;;;;;4.00;4.00;;;;;;;;5039302;28;45366;-74
2022/10/09 15:01:24;;;;;;;;;4.67;3.00;;;;;;;;5038357;28;45431;-74
2022/10/09 15:03:50;;;;;;;;;5.00;4.00;;;;;;;;5039619;28;45402;-74
2022/10/09 15:06:16;;;;;;;;;4.67;3.00;;;;;;;;5038369;28;45659;-74
2022/10/09 15:08:42;;;;;;;;;4.67;3.00;;;;;;;;5039712;28;45328;-74
2022/10/09 15:11:08;;;;;;;;;6.00;4.00;;;;;;;;5039607;28;45684;-73
2022/10/09 15:13:34;;;;;;;;;6.67;4.00;;;;;;;;5029615;28;45871;-74
2022/10/09 15:15:59;;;;;;;;;5.00;4.00;;;;;;;;5038752;28;45376;-74
2022/10/09 15:18:26;;;;;;;;;5.00;3.00;;;;;;;;5018355;28;46680;-74
2022/10/09 15:20:51;;;;;;;;;4.00;3.33;;;;;;;;5038405;28;46326;-73
2022/10/09 15:23:16;;;;;;;;;4.67;4.67;;;;;;;;5038329;28;45528;-74
2022/10/09 15:25:52;;;;;;;;;3.67;3.67;;;;;;;;5039013;28;45371;-74
2022/10/09 15:28:18;;;;;;;;;3.67;2.67;;;;;;;;5023291;28;45539;-74
2022/10/09 15:30:46;;;;;;;;;3.33;3.33;;;;;;;;5026205;28;46251;-74
2022/10/09 15:33:11;;;;;;;;;6.00;6.00;;;;;;;;5038085;28;45457;-74
2022/10/09 15:35:37;;;;;;;;;5.33;5.33;;;;;;;;5034650;28;45442;-74
2022/10/09 15:38:02;;;;;;;;;4.00;4.00;;;;;;;;5034708;28;45478;-74
2022/10/09 15:40:27;;;;;;;;;8.00;5.00;;;;;;;;5028975;28;46510;-75
2022/10/09 15:42:52;;;;;;;;;8.00;5.00;;;;;;;;5039113;28;45458;-74
2022/10/09 15:45:17;;;;;;;;;4.33;4.33;;;;;;;;5038715;28;45632;-74
2022/10/09 15:47:43;;;;;;;;;6.00;5.00;;;;;;;;5039200;28;45652;-74
2022/10/09 15:50:08;;;;;;;;;6.00;4.00;;;;;;;;5037194;28;46610;-75
2022/10/09 15:52:33;;;;;;;;;3.00;3.00;;;;;;;;5039054;28;45681;-74
2022/10/09 15:54:59;;;;;;;;;5.00;5.00;;;;;;;;5038797;28;45275;-75
2022/10/09 15:57:24;;;;;;;;;4.00;4.00;;;;;;;;5038500;28;45568;-74
2022/10/09 15:59:49;;;;;;;;;6.00;5.00;;;;;;;;5033007;28;45452;-73
2022/10/09 16:02:14;;;;;;;;;6.67;4.00;;;;;;;;5039238;28;45411;-75
2022/10/09 16:04:39;;;;;;;;;4.00;4.00;;;;;;;;5039395;28;45423;-73
2022/10/09 16:07:05;;;;;;;;;4.67;2.67;;;;;;;;5039082;28;45473;-74
2022/10/09 16:09:30;;;;;;;;;5.00;5.00;;;;;;;;5038810;28;46329;-74
2022/10/09 16:11:56;;;;;;;;;4.33;4.33;;;;;;;;5038511;28;45383;-74
2022/10/09 16:14:21;;;;;;;;;3.67;3.67;;;;;;;;5039244;28;45383;-74
2022/10/09 16:16:47;;;;;;;;;6.00;5.00;;;;;;;;5038810;28;45413;-74
2022/10/09 16:19:12;;;;;;;;;4.00;4.00;;;;;;;;5038497;28;45501;-74
2022/10/09 16:21:37;;;;;;;;;4.67;4.33;;;;;;;;5021086;28;45391;-74
2022/10/09 16:24:03;;;;;;;;;4.00;4.00;;;;;;;;5038765;28;45499;-73
2022/10/09 16:26:28;;;;;;;;;2.67;2.67;;;;;;;;5038414;28;45550;-73
2022/10/09 16:28:53;;;;;;;;;4.00;4.00;;;;;;;;5037336;28;46173;-73
2022/10/09 16:31:19;;;;;;;;;4.00;3.00;;;;;;;;5035776;28;45485;-73
2022/10/09 16:33:45;;;;;;;;;4.00;4.00;;;;;;;;5017402;28;45514;-73
2022/10/09 16:36:10;;;;;;;;;5.67;5.00;;;;;;;;5035439;28;45434;-74
2022/10/09 16:38:36;;;;;;;;;6.00;6.00;;;;;;;;5038127;28;46156;-74
2022/10/09 16:41:01;;;;;;;;;4.33;4.00;;;;;;;;5037431;28;45830;-74
2022/10/09 16:43:27;;;;;;;;;4.67;4.67;;;;;;;;5037702;28;45410;-74
2022/10/09 16:45:52;;;;;;;;;7.00;5.67;;;;;;;;5027251;28;45334;-75
2022/10/09 16:48:17;;;;;;;;;6.67;5.00;;;;;;;;5021424;28;45503;-75
2022/10/09 16:50:42;;;;;;;;;5.00;4.33;;;;;;;;5033883;28;45460;-74
2022/10/09 16:53:07;;;;;;;;;5.00;5.00;;;;;;;;5035180;28;45386;-70
2022/10/09 16:55:33;;;;;;;;;6.00;5.33;;;;;;;;5032090;28;45483;-75
2022/10/09 16:57:58;;;;;;;;;9.33;6.67;;;;;;;;5030274;28;45510;-74
2022/10/09 17:00:23;;;;;;;;;5.00;5.00;;;;;;;;5018493;28;45506;-72
2022/10/09 17:02:48;;;;;;;;;6.00;4.67;;;;;;;;5036224;28;45331;-75
2022/10/09 17:05:14;;;;;;;;;7.33;5.33;;;;;;;;5023059;28;45278;-74
2022/10/09 17:07:39;;;;;;;;;6.00;6.00;;;;;;;;5027910;28;46197;-75
2022/10/09 17:10:04;;;;;;;;;7.00;6.00;;;;;;;;5033949;28;45316;-75
2022/10/09 17:12:30;;;;;;;;;7.67;6.00;;;;;;;;5036879;28;45647;-76
2022/10/09 17:14:55;;;;;;;;;8.67;6.00;;;;;;;;5037164;28;45626;-75
2022/10/09 17:17:20;;;;;;;;;6.00;6.00;;;;;;;;5037826;28;45347;-75
2022/10/09 17:19:46;;;;;;;;;8.00;7.00;;;;;;;;5037139;28;45436;-75
2022/10/09 17:22:11;;;;;;;;;12.00;10.00;;;;;;;;5026656;28;45651;-74
2022/10/09 17:24:36;;;;;;;;;6.33;6.33;;;;;;;;5037315;28;45539;-76
2022/10/09 17:27:03;;;;;;;;;9.67;9.67;;;;;;;;5036840;28;46255;-64
2022/10/09 17:29:28;;;;;;;;;14.00;12.67;;;;;;;;5033516;28;45500;-72
2022/10/09 17:31:54;;;;;;;;;21.67;20.33;;;;;;;;5016283;28;45362;-70
2022/10/09 17:34:19;;;;;;;;;33.33;26.33;;;;;;;;5037750;28;45716;-67
2022/10/09 17:36:44;;;;;;;;;24.67;22.00;;;;;;;;5034640;28;46223;-69
2022/10/09 17:39:11;;;;;;;;;22.67;22.67;;;;;;;;5035513;28;45438;-70
2022/10/09 17:41:37;;;;;;;;;19.67;18.67;;;;;;;;5019331;28;45295;-70
2022/10/09 17:44:02;;;;;;;;;19.00;16.00;;;;;;;;5036478;28;45380;-70
2022/10/09 17:46:28;;;;;;;;;24.33;22.67;;;;;;;;5015293;28;46210;-70
2022/10/09 17:48:55;;;;;;;;;40.33;36.00;;;;;;;;5032685;28;45926;-72
2022/10/09 17:51:31;;;;;;;;;43.67;37.33;;;;;;;;5015894;28;45272;-71
2022/10/09 17:53:57;;;;;;;;;48.00;40.33;;;;;;;;5013099;28;45759;-71
2022/10/09 17:56:23;;;;;;;;;36.33;32.33;;;;;;;;5032206;28;46173;-71
2022/10/09 17:58:49;;;;;;;;;38.00;33.33;;;;;;;;5035208;28;45388;-71
2022/10/09 18:01:15;;;;;;;;;42.33;36.33;;;;;;;;5033195;28;45467;-71
2022/10/09 18:03:41;;;;;;;;;32.00;27.33;;;;;;;;5036902;28;45276;-72
2022/10/09 18:06:07;;;;;;;;;34.33;31.00;;;;;;;;5033542;28;45887;-71
2022/10/09 18:08:33;;;;;;;;;40.00;32.67;;;;;;;;5037331;28;45628;-71
2022/10/09 18:11:00;;;;;;;;;30.67;25.33;;;;;;;;5033938;28;45931;-71
2022/10/09 18:13:25;;;;;;;;;25.33;21.67;;;;;;;;5037296;28;45616;-72
2022/10/09 18:15:50;;;;;;;;;23.67;19.33;;;;;;;;5039819;28;46268;-72
2022/10/09 18:18:15;;;;;;;;;20.00;17.33;;;;;;;;5037791;28;45333;-71
2022/10/09 18:20:41;;;;;;;;;23.50;22.50;;;;;;;;5023219;28;45857;-71
2022/10/09 18:23:07;;;;;;;;;21.33;20.67;;;;;;;;5040248;28;45534;-71
2022/10/09 18:25:32;;;;;;;;;24.33;22.67;;;;;;;;5039888;28;45566;-71
2022/10/09 18:27:57;;;;;;;;;26.00;22.33;;;;;;;;5037334;28;45335;-69
2022/10/09 18:30:23;;;;;;;;;32.00;25.00;;;;;;;;5037006;28;45412;-71
2022/10/09 18:32:48;;;;;;;;;28.33;22.67;;;;;;;;5039172;28;46206;-71
2022/10/09 18:35:13;;;;;;;;;21.67;19.33;;;;;;;;5031482;28;46006;-71
2022/10/09 18:37:38;;;;;;;;;21.00;18.67;;;;;;;;5032846;28;45388;-71
2022/10/09 18:40:04;;;;;;;;;23.33;22.67;;;;;;;;5027079;28;45369;-71
2022/10/09 18:42:29;;;;;;;;;23.33;20.67;;;;;;;;5030920;28;45573;-71
2022/10/09 18:44:54;;;;;;;;;28.00;26.67;;;;;;;;5031216;28;45719;-71
2022/10/09 18:47:21;;;;;;;;;23.00;22.00;;;;;;;;5031365;28;45599;-71
2022/10/09 18:49:49;;;;;;;;;23.33;21.33;;;;;;;;5031062;28;45525;-70
2022/10/09 18:52:15;;;;;;;;;26.33;22.67;;;;;;;;5033472;28;45376;-71
2022/10/09 18:54:41;;;;;;;;;25.33;25.33;;;;;;;;5031160;28;46008;-69
2022/10/09 18:57:07;;;;;;;;;30.33;27.67;;;;;;;;5029988;28;45443;-69
2022/10/09 18:59:33;;;;;;;;;27.33;26.33;;;;;;;;5033543;28;45384;-66
2022/10/09 19:01:59;;;;;;;;;27.00;27.00;;;;;;;;5031395;28;45694;-69
2022/10/09 19:04:24;;;;;;;;;35.67;31.00;;;;;;;;5028756;28;45803;-70
2022/10/09 19:06:50;;;;;;;;;30.67;28.00;;;;;;;;5024718;28;45787;-67
2022/10/09 19:09:16;;;;;;;;;25.00;22.00;;;;;;;;5030135;28;45620;-69
2022/10/09 19:11:41;;;;;;;;;33.33;30.67;;;;;;;;5028399;28;45833;-68
2022/10/09 19:14:06;;;;;;;;;32.00;29.33;;;;;;;;5030298;28;46240;-68
2022/10/09 19:16:32;;;;;;;;;32.33;29.67;;;;;;;;5010319;28;45545;-69
2022/10/09 19:18:58;;;;;;;;;44.33;30.67;;;;;;;;5030867;28;45416;-69
2022/10/09 19:21:23;;;;;;;;;33.00;28.67;;;;;;;;5027107;28;45950;-69
2022/10/09 19:23:49;;;;;;;;;30.00;26.67;;;;;;;;5027398;28;46101;-69
2022/10/09 19:26:15;;;;;;;;;31.00;27.67;;;;;;;;5028392;28;45626;-69
2022/10/09 19:28:41;;;;;;;;;30.67;27.33;;;;;;;;5027924;28;45364;-69
2022/10/09 19:31:07;;;;;;;;;33.67;30.67;;;;;;;;5028399;28;45868;-70
2022/10/09 19:33:32;;;;;;;;;35.00;30.33;;;;;;;;5030117;28;46401;-69
2022/10/09 19:35:57;;;;;;;;;31.33;29.33;;;;;;;;5028991;28;45483;-69
2022/10/09 19:38:23;;;;;;;;;31.00;29.00;;;;;;;;5013761;28;45531;-69
2022/10/09 19:40:49;;;;;;;;;30.67;28.00;;;;;;;;5030339;28;45842;-69
2022/10/09 19:43:15;;;;;;;;;24.33;22.33;;;;;;;;5032678;28;45703;-70
2022/10/09 19:45:40;;;;;;;;;29.00;25.00;;;;;;;;5028055;28;45563;-71
2022/10/09 19:48:05;;;;;;;;;26.00;25.00;;;;;;;;5009759;28;45681;-71
2022/10/09 19:50:31;;;;;;;;;23.00;21.33;;;;;;;;5026854;28;45455;-71
2022/10/09 19:52:57;;;;;;;;;26.67;24.67;;;;;;;;5030131;28;45995;-71
2022/10/09 19:55:22;;;;;;;;;21.67;21.67;;;;;;;;5036377;28;45505;-71
2022/10/09 19:57:47;;;;;;;;;23.67;22.67;;;;;;;;5035939;28;45348;-71
2022/10/09 20:00:13;;;;;;;;;23.33;19.67;;;;;;;;5032108;28;45558;-71
2022/10/09 20:02:38;;;;;;;;;29.00;22.67;;;;;;;;5025789;28;46138;-71
2022/10/09 20:05:03;;;;;;;;;27.00;21.00;;;;;;;;5010552;28;45632;-71
2022/10/09 20:07:29;;;;;;;;;29.00;22.67;;;;;;;;5016442;28;45457;-71
2022/10/09 20:09:55;;;;;;;;;26.33;20.00;;;;;;;;5033356;28;45399;-71
2022/10/09 20:12:20;;;;;;;;;24.33;23.00;;;;;;;;5038327;28;46086;-71
2022/10/09 20:14:45;;;;;;;;;22.00;19.33;;;;;;;;5037341;28;45486;-71
2022/10/09 20:17:10;;;;;;;;;23.00;19.33;;;;;;;;5038370;28;45296;-71
2022/10/09 20:19:35;;;;;;;;;28.33;23.00;;;;;;;;5036279;28;45712;-71
2022/10/09 20:22:01;;;;;;;;;27.33;19.67;;;;;;;;5033196;28;45559;-71
2022/10/09 20:24:26;;;;;;;;;27.33;23.00;;;;;;;;5036179;28;45576;-71
2022/10/09 20:26:51;;;;;;;;;24.67;23.00;;;;;;;;5033876;28;45842;-71
2022/10/09 20:29:16;;;;;;;;;23.67;21.67;;;;;;;;5030902;28;45589;-66
2022/10/09 20:31:41;;;;;;;;;27.33;22.00;;;;;;;;5035807;28;46169;-68
2022/10/09 20:34:07;;;;;;;;;26.00;23.67;;;;;;;;5032823;28;46771;-69
2022/10/09 20:36:36;;;;;;;;;25.00;24.67;;;;;;;;5037450;28;45448;-68
2022/10/09 20:39:06;;;;;;;;;27.67;27.00;;;;;;;;5037256;28;45453;-69